Time;durP1;ratioP1;P1;durP2;ratioP2;P2;SDS_P1;SDS_P2;PMS_P1;PMS_P2;Temp;Humidity;BMP_temperature;BMP_pressure;BME280_temperature;BME280_humidity;BME280_pressure;Samples;Min_cycle;Max_cycle;Signal;HPM_P1;HPM_P2
2022/10/22 00:02:21;;;;;;;28.03;5.97;;;15.40;99.90;;;;;;5076193;28;20477;-63
2022/10/22 00:04:49;;;;;;;10.00;5.67;;;15.50;99.90;;;;;;5075312;28;20476;-63
2022/10/22 00:07:17;;;;;;;9.83;6.33;;;15.50;99.90;;;;;;5085789;27;20860;-63
2022/10/22 00:09:45;;;;;;;16.40;5.30;;;15.70;99.90;;;;;;5091628;27;20882;-62
2022/10/22 00:12:14;;;;;;;13.70;8.63;;;15.80;99.90;;;;;;5092355;27;20507;-63
2022/10/22 00:14:42;;;;;;;10.80;6.47;;;15.80;99.90;;;;;;5087853;28;20485;-62
2022/10/22 00:17:08;;;;;;;19.10;7.30;;;15.90;99.90;;;;;;5088499;28;20487;-62
2022/10/22 00:19:35;;;;;;;14.00;8.20;;;16.00;99.90;;;;;;5089987;28;20847;-63
2022/10/22 00:22:04;;;;;;;12.67;8.90;;;16.10;99.90;;;;;;5091343;28;20500;-62
2022/10/22 00:24:31;;;;;;;15.27;6.37;;;16.10;99.90;;;;;;5092768;28;20489;-63
2022/10/22 00:26:58;;;;;;;13.33;7.87;;;16.10;99.90;;;;;;5087542;28;20488;-62
2022/10/22 00:29:26;;;;;;;8.47;5.80;;;16.00;99.90;;;;;;5091166;28;20481;-63
2022/10/22 00:31:53;;;;;;;12.90;5.30;;;16.00;99.90;;;;;;5091853;28;20834;-62
2022/10/22 00:34:21;;;;;;;13.17;7.27;;;15.90;99.90;;;;;;5083972;28;20469;-62
2022/10/22 00:36:48;;;;;;;10.57;7.37;;;15.90;99.90;;;;;;5088658;28;20602;-63
2022/10/22 00:39:16;;;;;;;13.23;5.80;;;15.90;99.90;;;;;;5091102;28;20500;-63
2022/10/22 00:41:43;;;;;;;9.00;6.50;;;15.90;99.90;;;;;;5088991;28;20473;-63
2022/10/22 00:44:44;;;;;;;15.23;8.80;;;16.00;99.90;;;;;;5089406;28;20493;-63
2022/10/22 00:47:12;;;;;;;16.07;9.93;;;16.00;99.90;;;;;;5090327;27;20485;-62
2022/10/22 00:49:39;;;;;;;9.90;4.93;;;16.00;99.90;;;;;;5091276;28;20484;-62
2022/10/22 00:52:06;;;;;;;13.87;8.70;;;15.90;99.90;;;;;;5091580;28;20480;-62
2022/10/22 00:54:33;;;;;;;10.57;7.50;;;15.90;99.90;;;;;;5076890;28;20482;-63
2022/10/22 00:57:01;;;;;;;21.83;7.83;;;15.80;99.90;;;;;;5079105;28;20482;-63
2022/10/22 00:59:29;;;;;;;11.90;7.73;;;15.70;99.90;;;;;;5082509;28;20508;-63
2022/10/22 01:01:55;;;;;;;9.43;6.30;;;15.80;99.90;;;;;;5090570;28;20486;-63
2022/10/22 01:04:24;;;;;;;12.70;4.23;;;15.70;99.90;;;;;;5092187;28;20496;-63
2022/10/22 01:06:50;;;;;;;8.43;5.60;;;15.70;99.90;;;;;;5089979;28;20973;-63
2022/10/22 01:09:25;;;;;;;7.50;4.70;;;15.80;99.90;;;;;;5091732;28;20874;-63
2022/10/22 01:12:01;;;;;;;8.50;5.37;;;15.60;99.90;;;;;;5081975;28;20562;-63
2022/10/22 01:14:35;;;;;;;12.47;5.33;;;15.60;99.90;;;;;;5092241;28;20481;-63
2022/10/22 01:17:08;;;;;;;19.50;7.30;;;15.60;99.90;;;;;;5085265;28;20993;-63
2022/10/22 01:19:54;;;;;;;10.33;5.40;;;15.60;99.90;;;;;;5094541;28;20490;-63
2022/10/22 01:22:28;;;;;;;6.10;3.63;;;15.60;99.90;;;;;;5092960;28;20559;-63
2022/10/22 01:24:58;;;;;;;6.37;4.43;;;15.70;99.90;;;;;;5092847;28;21062;-62
2022/10/22 01:27:32;;;;;;;23.67;4.47;;;15.80;99.90;;;;;;5074921;27;20492;-62
2022/10/22 01:30:03;;;;;;;9.90;5.73;;;15.80;99.90;;;;;;5089591;28;21028;-62
2022/10/22 01:33:27;;;;;;;8.63;5.17;;;16.00;99.90;;;;;;5078980;28;20489;-62
2022/10/22 01:35:55;;;;;;;14.73;4.17;;;15.90;99.90;;;;;;5089264;28;20917;-61
2022/10/22 01:38:24;;;;;;;13.37;4.63;;;15.90;99.90;;;;;;5090022;27;20485;-62
2022/10/22 01:40:52;;;;;;;8.83;4.97;;;15.80;99.90;;;;;;5094916;28;20534;-61
2022/10/22 01:43:19;;;;;;;13.00;3.70;;;15.70;99.90;;;;;;5092535;28;20965;-62
2022/10/22 01:45:50;;;;;;;12.23;5.80;;;15.80;99.90;;;;;;5094067;28;21279;-62
2022/10/22 01:48:31;;;;;;;10.40;5.23;;;15.80;99.90;;;;;;5081918;28;20551;-62
2022/10/22 01:51:21;;;;;;;13.33;7.00;;;16.00;99.90;;;;;;5094072;28;20494;-62
2022/10/22 01:53:53;;;;;;;11.20;3.53;;;16.00;99.90;;;;;;5081870;28;21043;-62
2022/10/22 01:56:35;;;;;;;15.77;6.60;;;16.00;99.90;;;;;;5090176;28;20482;-62
2022/10/22 01:59:07;;;;;;;16.57;5.80;;;15.90;99.90;;;;;;5095248;27;20961;-62
2022/10/22 02:01:44;;;;;;;6.37;4.40;;;15.80;99.90;;;;;;5092457;28;20482;-61
2022/10/22 02:04:18;;;;;;;13.57;5.87;;;15.90;99.90;;;;;;5092607;28;20473;-62
2022/10/22 02:06:47;;;;;;;12.57;7.10;;;15.80;99.90;;;;;;5089700;28;20484;-62
2022/10/22 02:09:17;;;;;;;9.00;5.77;;;15.80;99.90;;;;;;5093047;28;20717;-61
2022/10/22 02:11:45;;;;;;;9.20;4.23;;;15.70;99.90;;;;;;5080421;28;20481;-62
2022/10/22 02:14:13;;;;;;;20.53;8.50;;;15.60;99.90;;;;;;5093196;28;20484;-62
2022/10/22 02:16:44;;;;;;;20.23;7.60;;;15.60;99.90;;;;;;5088221;28;20465;-63
2022/10/22 02:19:16;;;;;;;12.43;7.13;;;15.60;99.90;;;;;;5086334;27;20826;-61
2022/10/22 02:21:44;;;;;;;11.37;4.90;;;15.60;99.90;;;;;;5080203;28;20486;-63
2022/10/22 02:24:10;;;;;;;13.10;5.17;;;15.70;99.90;;;;;;5090295;28;20466;-61
2022/10/22 02:26:42;;;;;;;12.57;7.07;;;15.70;99.90;;;;;;5086166;28;20493;-62
2022/10/22 02:29:15;;;;;;;13.33;8.40;;;15.80;99.90;;;;;;5091394;28;20921;-62
2022/10/22 02:31:46;;;;;;;7.63;4.13;;;15.90;99.90;;;;;;5094215;28;20481;-60
2022/10/22 02:34:17;;;;;;;11.23;7.50;;;15.90;99.90;;;;;;5091523;28;20476;-61
2022/10/22 02:36:46;;;;;;;10.43;4.60;;;16.00;99.90;;;;;;5089639;28;20769;-61
2022/10/22 02:39:14;;;;;;;11.03;6.37;;;16.10;99.90;;;;;;5093960;28;20485;-61
2022/10/22 02:41:42;;;;;;;6.30;3.53;;;16.10;99.90;;;;;;5090314;28;20485;-62
2022/10/22 02:44:10;;;;;;;14.23;5.50;;;16.20;99.90;;;;;;5092140;28;20477;-61
2022/10/22 02:46:37;;;;;;;18.00;8.47;;;16.10;99.90;;;;;;5076318;28;21220;-61
2022/10/22 02:49:06;;;;;;;103.60;14.17;;;16.00;99.90;;;;;;5079773;28;20502;-61
2022/10/22 02:51:33;;;;;;;13.33;4.43;;;15.60;99.90;;;;;;5090618;28;20470;-62
2022/10/22 02:53:59;;;;;;;13.80;6.40;;;15.40;99.90;;;;;;5089100;28;20496;-61
2022/10/22 02:56:26;;;;;;;15.03;8.00;;;15.10;99.90;;;;;;5078209;28;20700;-62
2022/10/22 02:58:53;;;;;;;11.80;5.13;;;14.90;99.90;;;;;;5090121;28;20484;-62
2022/10/22 03:01:19;;;;;;;8.37;4.13;;;14.90;99.90;;;;;;5079348;28;20977;-62
2022/10/22 03:03:46;;;;;;;6.83;3.97;;;14.90;99.90;;;;;;5092996;28;20489;-61
2022/10/22 03:06:14;;;;;;;17.30;5.93;;;14.90;99.90;;;;;;5090840;28;20492;-62
2022/10/22 03:08:41;;;;;;;12.83;6.00;;;14.90;99.90;;;;;;5087747;28;20484;-62
2022/10/22 03:11:08;;;;;;;24.03;11.93;;;14.90;99.90;;;;;;5091924;28;20485;-62
2022/10/22 03:13:35;;;;;;;13.53;4.60;;;14.90;99.90;;;;;;5094245;28;20477;-62
2022/10/22 03:16:02;;;;;;;15.10;7.10;;;14.90;99.90;;;;;;5092884;28;20485;-61
2022/10/22 03:18:28;;;;;;;5.77;3.23;;;14.80;99.90;;;;;;5088025;28;20493;-62
2022/10/22 03:21:04;;;;;;;12.70;4.40;;;14.60;99.90;;;;;;5081472;28;20470;-62
2022/10/22 03:23:33;;;;;;;10.37;5.17;;;14.60;99.90;;;;;;5083317;28;20548;-61
2022/10/22 03:25:59;;;;;;;6.97;4.03;;;14.50;99.90;;;;;;5091761;28;20484;-62
2022/10/22 03:28:26;;;;;;;11.77;6.07;;;14.40;99.90;;;;;;5088141;28;20484;-62
2022/10/22 03:30:53;;;;;;;9.70;5.33;;;14.40;99.90;;;;;;5093602;28;20829;-62
2022/10/22 03:33:20;;;;;;;8.50;4.40;;;14.30;99.90;;;;;;5093979;28;20481;-62
2022/10/22 03:35:48;;;;;;;9.30;4.87;;;14.30;99.90;;;;;;5093228;28;20484;-62
2022/10/22 03:38:15;;;;;;;12.07;5.90;;;14.30;99.90;;;;;;5086668;28;20486;-62
2022/10/22 03:40:44;;;;;;;8.30;4.50;;;14.30;99.90;;;;;;5094789;28;21025;-61
2022/10/22 03:43:11;;;;;;;16.73;8.00;;;14.30;99.90;;;;;;5094562;28;20897;-62
2022/10/22 03:45:38;;;;;;;10.70;5.60;;;14.30;99.90;;;;;;5096700;28;20490;-61
2022/10/22 03:48:05;;;;;;;17.17;8.77;;;14.30;99.90;;;;;;5092307;28;20470;-61
2022/10/22 03:50:32;;;;;;;12.37;5.30;;;14.30;99.90;;;;;;5098164;28;20696;-60
2022/10/22 03:52:59;;;;;;;14.17;5.80;;;14.30;99.90;;;;;;5099210;28;20504;-61
2022/10/22 03:55:26;;;;;;;5.37;3.00;;;14.40;99.90;;;;;;5098969;28;20474;-60
2022/10/22 03:57:54;;;;;;;10.73;5.67;;;14.40;99.90;;;;;;5092761;28;20477;-61
2022/10/22 04:00:21;;;;;;;6.00;3.33;;;14.50;99.90;;;;;;5089258;27;20485;-61
2022/10/22 04:02:48;;;;;;;6.30;3.47;;;14.60;99.90;;;;;;5096850;28;20809;-62
2022/10/22 04:05:14;;;;;;;11.87;5.60;;;14.60;99.90;;;;;;5097033;28;20488;-61
2022/10/22 04:07:41;;;;;;;9.33;4.97;;;14.60;99.90;;;;;;5091772;28;20481;-61
2022/10/22 04:10:08;;;;;;;16.53;8.23;;;14.40;99.90;;;;;;5095347;28;20643;-61
2022/10/22 04:12:35;;;;;;;8.40;4.40;;;14.50;99.90;;;;;;5075203;28;20482;-62
2022/10/22 04:15:04;;;;;;;13.27;7.37;;;14.50;99.90;;;;;;5093482;28;20473;-61
2022/10/22 04:17:33;;;;;;;19.00;4.43;;;14.30;99.90;;;;;;5092313;28;20493;-62
2022/10/22 04:20:00;;;;;;;13.17;7.37;;;14.30;99.90;;;;;;5091800;27;20484;-62
2022/10/22 04:22:27;;;;;;;14.87;4.57;;;14.20;99.90;;;;;;5066148;28;20474;-62
2022/10/22 04:24:53;;;;;;;8.13;3.50;;;14.30;99.90;;;;;;5096364;28;20517;-62
2022/10/22 04:27:20;;;;;;;7.03;3.67;;;14.30;99.90;;;;;;5092617;27;20476;-62
2022/10/22 04:29:47;;;;;;;9.37;3.70;;;14.40;99.90;;;;;;5095979;28;20484;-60
2022/10/22 04:32:15;;;;;;;16.57;6.43;;;14.40;99.90;;;;;;5094689;28;20799;-62
2022/10/22 04:34:42;;;;;;;7.97;4.47;;;14.40;99.90;;;;;;5097213;28;20485;-61
2022/10/22 04:37:08;;;;;;;19.40;9.50;;;14.40;99.90;;;;;;5090485;28;20842;-61
2022/10/22 04:39:35;;;;;;;7.83;2.50;;;14.30;99.90;;;;;;5096791;28;20481;-61
2022/10/22 04:42:02;;;;;;;13.17;6.40;;;14.30;99.90;;;;;;5095347;28;20473;-61
2022/10/22 04:44:29;;;;;;;13.03;4.57;;;14.20;99.90;;;;;;5094946;28;20501;-61
2022/10/22 04:46:56;;;;;;;12.73;4.27;;;14.20;99.90;;;;;;5076601;28;20489;-61
2022/10/22 04:49:24;;;;;;;6.63;3.80;;;14.10;99.90;;;;;;5094146;28;20883;-61
2022/10/22 04:51:51;;;;;;;14.30;6.30;;;14.20;99.90;;;;;;5097022;28;20497;-62
2022/10/22 04:54:17;;;;;;;23.60;9.90;;;14.10;99.90;;;;;;5097264;28;20477;-62
2022/10/22 04:56:44;;;;;;;18.53;9.70;;;14.10;99.90;;;;;;5093512;28;20753;-62
2022/10/22 04:59:12;;;;;;;13.73;7.60;;;14.00;99.90;;;;;;5097685;27;20488;-62
2022/10/22 05:01:41;;;;;;;16.70;4.10;;;14.00;99.90;;;;;;5080868;28;20585;-61
2022/10/22 05:04:10;;;;;;;20.43;10.63;;;13.90;99.90;;;;;;5067179;27;20466;-61
2022/10/22 05:06:39;;;;;;;15.80;7.83;;;13.90;99.90;;;;;;5086403;28;20504;-61
2022/10/22 05:09:07;;;;;;;25.50;9.00;;;13.90;99.90;;;;;;5094642;28;20474;-60
2022/10/22 05:11:35;;;;;;;7.23;4.47;;;13.80;99.90;;;;;;5069501;28;20481;-61
2022/10/22 05:14:04;;;;;;;15.90;8.10;;;;;;;;;;5096264;28;20466;-61
2022/10/22 05:16:32;;;;;;;13.87;7.77;;;13.80;99.90;;;;;;5090626;28;20485;-62
2022/10/22 05:19:00;;;;;;;10.03;5.70;;;13.70;99.90;;;;;;5095813;28;20466;-62
2022/10/22 05:21:27;;;;;;;9.23;5.40;;;13.70;99.90;;;;;;5094835;28;20485;-62
2022/10/22 05:23:58;;;;;;;6.83;4.10;;;13.70;99.90;;;;;;5096620;28;21613;-62
2022/10/22 05:26:25;;;;;;;14.90;7.13;;;13.60;99.90;;;;;;5093753;28;21003;-62
2022/10/22 05:28:52;;;;;;;10.30;4.77;;;13.60;99.90;;;;;;5093992;27;20734;-63
2022/10/22 05:31:20;;;;;;;6.53;3.40;;;13.60;99.90;;;;;;5093783;27;21526;-62
2022/10/22 05:33:47;;;;;;;9.53;4.10;;;13.60;99.90;;;;;;5091569;28;20488;-62
2022/10/22 05:36:16;;;;;;;21.43;5.90;;;13.60;99.90;;;;;;5091991;28;20484;-61
2022/10/22 05:38:43;;;;;;;8.40;5.53;;;13.60;99.90;;;;;;5089779;28;20482;-62
2022/10/22 05:41:12;;;;;;;15.50;8.93;;;13.60;99.90;;;;;;5080753;28;20482;-61
2022/10/22 05:43:39;;;;;;;11.00;3.80;;;13.60;99.90;;;;;;5065900;28;20504;-62
2022/10/22 05:46:08;;;;;;;16.13;8.00;;;13.60;99.90;;;;;;5073238;28;20768;-62
2022/10/22 05:48:35;;;;;;;7.23;4.07;;;13.60;99.90;;;;;;5088963;28;20486;-62
2022/10/22 05:51:04;;;;;;;14.73;5.97;;;13.60;99.90;;;;;;5094428;27;21028;-62
2022/10/22 05:53:31;;;;;;;7.23;3.70;;;13.50;99.90;;;;;;5093879;28;20543;-62
2022/10/22 05:56:01;;;;;;;15.90;6.00;;;13.50;99.90;;;;;;5092587;28;20473;-62
2022/10/22 05:58:29;;;;;;;17.13;4.60;;;13.50;99.90;;;;;;5073541;28;20992;-62
2022/10/22 06:01:01;;;;;;;9.30;5.60;;;13.40;99.90;;;;;;5087054;28;20709;-62
2022/10/22 06:03:28;;;;;;;16.63;5.67;;;13.30;99.90;;;;;;5092371;28;20874;-62
2022/10/22 06:05:55;;;;;;;9.37;5.30;;;13.30;99.90;;;;;;5091170;28;20898;-62
2022/10/22 06:08:22;;;;;;;3.33;2.17;;;13.30;99.90;;;;;;5088520;28;20474;-61
2022/10/22 06:10:48;;;;;;;11.40;3.90;;;13.20;99.90;;;;;;5094476;28;20832;-61
2022/10/22 06:13:15;;;;;;;12.50;6.47;;;13.10;99.90;;;;;;5093012;27;20484;-62
2022/10/22 06:15:44;;;;;;;7.43;4.23;;;;;;;;;;5092435;28;21106;-62
2022/10/22 06:18:11;;;;;;;12.30;6.83;;;12.90;99.90;;;;;;5086666;28;21956;-62
2022/10/22 06:20:37;;;;;;;5.47;3.63;;;13.00;99.90;;;;;;5091030;28;20483;-62
2022/10/22 06:23:04;;;;;;;17.50;9.07;;;13.00;99.90;;;;;;5087658;28;21060;-61
2022/10/22 06:25:31;;;;;;;14.67;5.37;;;12.90;99.90;;;;;;5079988;27;20474;-62
2022/10/22 06:27:57;;;;;;;8.63;4.73;;;12.90;99.90;;;;;;5086034;28;20469;-62
2022/10/22 06:30:24;;;;;;;4.77;2.90;;;12.90;99.90;;;;;;5094800;28;20488;-61
2022/10/22 06:32:52;;;;;;;7.27;4.43;;;12.80;99.90;;;;;;5094408;28;20484;-61
2022/10/22 06:35:19;;;;;;;6.60;3.60;;;12.80;99.90;;;;;;5087613;28;21032;-62
2022/10/22 06:37:46;;;;;;;9.33;4.77;;;12.80;99.90;;;;;;5077987;28;20474;-61
2022/10/22 06:40:15;;;;;;;13.30;6.77;;;12.80;99.90;;;;;;5092315;28;20577;-62
2022/10/22 06:42:41;;;;;;;8.97;4.03;;;12.80;99.90;;;;;;5088879;28;20526;-62
2022/10/22 06:45:10;;;;;;;19.37;10.00;;;12.80;99.90;;;;;;5092437;28;20554;-61
2022/10/22 06:47:36;;;;;;;18.20;4.27;;;13.50;99.90;;;;;;5090735;28;20649;-61
2022/10/22 06:50:05;;;;;;;20.13;9.70;;;12.90;99.90;;;;;;5093884;28;21004;-62
2022/10/22 06:52:32;;;;;;;8.97;4.80;;;12.80;99.90;;;;;;5097121;28;20978;-62
2022/10/22 06:54:59;;;;;;;8.27;4.57;;;12.90;99.90;;;;;;5096035;28;20880;-61
2022/10/22 06:57:25;;;;;;;7.70;4.20;;;13.00;99.90;;;;;;5094156;28;20570;-62
2022/10/22 06:59:52;;;;;;;8.90;5.43;;;13.00;99.90;;;;;;5097486;28;20846;-61
2022/10/22 07:02:19;;;;;;;13.97;4.10;;;13.10;99.90;;;;;;5092603;28;20783;-62
2022/10/22 07:04:46;;;;;;;7.53;4.67;;;13.10;99.90;;;;;;5094523;28;20891;-61
2022/10/22 07:07:14;;;;;;;14.63;6.80;;;13.10;99.90;;;;;;5088783;28;20474;-62
2022/10/22 07:09:44;;;;;;;7.33;4.20;;;13.20;99.90;;;;;;5090977;28;20605;-62
2022/10/22 07:12:11;;;;;;;13.70;7.47;;;13.60;99.90;;;;;;5078873;28;20481;-63
2022/10/22 07:14:38;;;;;;;11.90;4.63;;;;;;;;;;5083216;28;20512;-62
2022/10/22 07:17:04;;;;;;;13.70;5.50;;;14.60;99.90;;;;;;5088197;28;20482;-61
2022/10/22 07:19:31;;;;;;;13.30;4.17;;;14.90;99.90;;;;;;5094928;28;20485;-63
2022/10/22 07:21:58;;;;;;;9.20;4.90;;;15.10;99.90;;;;;;5087029;27;20460;-62
2022/10/22 07:24:26;;;;;;;20.43;3.93;;;15.10;99.90;;;;;;5085415;28;20477;-62
2022/10/22 07:26:53;;;;;;;8.30;5.80;;;15.20;99.90;;;;;;5090598;28;20500;-62
2022/10/22 07:29:20;;;;;;;5.07;3.90;;;15.80;99.90;;;;;;5092684;27;20469;-62
2022/10/22 07:31:47;;;;;;;10.53;2.90;;;17.00;99.90;;;;;;5097138;28;20477;-62
2022/10/22 07:34:14;;;;;;;7.80;3.37;;;18.20;99.90;;;;;;5078673;28;20884;-63
2022/10/22 07:36:41;;;;;;;9.10;5.63;;;19.00;99.90;;;;;;5090847;28;20802;-63
2022/10/22 07:39:07;;;;;;;10.97;4.20;;;20.20;99.90;;;;;;5099193;28;20466;-62
2022/10/22 07:41:35;;;;;;;4.73;3.10;;;20.90;99.90;;;;;;5097263;28;20493;-63
2022/10/22 07:44:02;;;;;;;4.57;4.17;;;21.50;99.90;;;;;;5068460;28;20482;-63
2022/10/22 07:46:29;;;;;;;6.63;4.10;;;22.20;99.00;;;;;;5079661;28;20664;-63
2022/10/22 07:48:56;;;;;;;3.60;3.30;;;22.20;98.40;;;;;;5092777;28;20473;-63
2022/10/22 07:51:22;;;;;;;3.70;2.40;;;22.20;98.20;;;;;;5089249;28;20452;-63
2022/10/22 07:53:49;;;;;;;7.60;2.40;;;22.40;98.30;;;;;;5089391;28;20492;-63
2022/10/22 07:56:16;;;;;;;4.23;3.77;;;22.00;98.00;;;;;;5076111;28;20444;-63
2022/10/22 07:58:44;;;;;;;3.40;2.63;;;22.00;98.40;;;;;;5087277;27;20977;-63
2022/10/22 08:01:11;;;;;;;8.70;3.60;;;21.70;98.50;;;;;;5090233;28;20485;-63
2022/10/22 08:03:38;;;;;;;3.70;3.40;;;21.70;99.00;;;;;;5096253;28;20448;-64
2022/10/22 08:06:05;;;;;;;6.43;4.70;;;21.30;98.90;;;;;;5094986;28;21124;-63
2022/10/22 08:08:33;;;;;;;8.23;2.67;;;21.30;99.90;;;;;;5092322;27;20440;-64
2022/10/22 08:11:01;;;;;;;3.43;3.17;;;21.10;99.30;;;;;;5096620;28;22131;-63
2022/10/22 08:13:29;;;;;;;3.07;2.83;;;20.90;99.80;;;;;;5093468;28;20505;-64
2022/10/22 08:15:59;;;;;;;9.43;2.80;;;20.90;99.90;;;;;;5087012;27;20480;-62
2022/10/22 08:18:26;;;;;;;4.10;3.10;;;20.30;99.90;;;;;;5090245;28;20469;-63
2022/10/22 08:20:53;;;;;;;5.40;2.90;;;20.20;99.90;;;;;;5096771;28;20513;-63
2022/10/22 08:23:21;;;;;;;12.43;2.97;;;20.20;99.90;;;;;;5094547;28;20463;-64
2022/10/22 08:25:48;;;;;;;4.10;2.50;;;20.10;99.90;;;;;;5097266;27;20995;-63
2022/10/22 08:28:14;;;;;;;6.43;4.37;;;20.00;99.90;;;;;;5092155;27;20794;-64
2022/10/22 08:30:43;;;;;;;7.10;2.40;;;19.70;99.90;;;;;;5096692;28;20474;-62
2022/10/22 08:33:11;;;;;;;5.83;4.97;;;19.60;99.90;;;;;;5095297;28;20468;-63
2022/10/22 08:35:38;;;;;;;3.57;3.27;;;19.40;99.90;;;;;;5092073;28;21002;-62
2022/10/22 08:38:05;;;;;;;7.77;6.20;;;19.30;99.90;;;;;;5090938;28;20477;-62
2022/10/22 08:40:34;;;;;;;7.63;4.60;;;19.20;99.90;;;;;;5094122;28;20456;-64
2022/10/22 08:43:29;;;;;;;5.90;4.67;;;18.90;99.90;;;;;;5093714;28;20455;-63
2022/10/22 08:46:09;;;;;;;7.03;4.07;;;18.50;99.90;;;;;;5090127;27;20885;-62
2022/10/22 08:48:43;;;;;;;4.63;3.73;;;18.20;99.90;;;;;;5076614;28;20459;-63
2022/10/22 08:51:14;;;;;;;7.93;6.40;;;18.00;99.90;;;;;;5079487;28;21040;-63
2022/10/22 08:53:47;;;;;;;8.73;3.43;;;17.80;99.90;;;;;;5078887;28;20490;-62
2022/10/22 08:56:14;;;;;;;6.40;4.80;;;17.80;99.90;;;;;;5070807;28;20499;-62
2022/10/22 08:58:45;;;;;;;7.10;3.53;;;17.70;99.90;;;;;;5110307;28;20469;-61
2022/10/22 09:01:15;;;;;;;10.20;6.90;;;17.80;99.90;;;;;;5107044;28;20838;-62
2022/10/22 09:03:50;;;;;;;11.20;3.97;;;18.00;99.90;;;;;;5092789;28;20465;-62
2022/10/22 09:06:19;;;;;;;12.63;5.73;;;18.00;99.90;;;;;;5086502;28;20548;-63
2022/10/22 09:08:47;;;;;;;4.67;3.90;;;18.10;99.90;;;;;;5092582;28;20452;-63
2022/10/22 09:11:22;;;;;;;14.77;6.00;;;18.00;99.90;;;;;;5090643;28;20488;-62
2022/10/22 09:13:49;;;;;;;4.83;3.77;;;18.20;99.90;;;;;;5086743;28;20788;-63
2022/10/22 09:16:19;;;;;;;10.07;6.63;;;18.10;99.90;;;;;;5066548;28;20474;-62
2022/10/22 09:18:58;;;;;;;10.83;4.37;;;17.80;99.90;;;;;;5086929;28;20470;-63
2022/10/22 09:21:33;;;;;;;6.60;4.50;;;17.80;99.90;;;;;;5067388;27;20461;-63
2022/10/22 09:24:06;;;;;;;13.60;6.63;;;17.90;99.90;;;;;;5087817;28;20693;-62
2022/10/22 09:26:38;;;;;;;15.30;7.43;;;17.80;99.90;;;;;;5091610;28;20486;-62
2022/10/22 09:29:05;;;;;;;12.53;8.40;;;17.90;99.90;;;;;;5092704;28;20463;-63
2022/10/22 09:31:33;;;;;;;19.07;5.77;;;18.00;99.90;;;;;;5094038;28;20453;-62
2022/10/22 09:34:06;;;;;;;8.13;5.10;;;18.10;99.90;;;;;;5094109;28;20456;-63
2022/10/22 09:36:33;;;;;;;14.30;8.60;;;;;;;;;;5092718;27;20477;-63
2022/10/22 09:39:01;;;;;;;10.37;6.63;;;17.90;99.90;;;;;;5082370;28;20835;-62
2022/10/22 09:41:29;;;;;;;8.67;5.50;;;18.10;99.90;;;;;;5094350;28;20586;-63
2022/10/22 09:43:57;;;;;;;4.83;3.90;;;17.90;99.90;;;;;;5094762;28;20481;-63
2022/10/22 09:46:27;;;;;;;10.50;6.40;;;18.10;99.90;;;;;;5091716;28;20922;-62
2022/10/22 09:49:04;;;;;;;10.13;6.33;;;18.30;99.90;;;;;;5093328;27;20496;-63
2022/10/22 09:51:46;;;;;;;19.17;5.40;;;18.70;99.90;;;;;;5095392;27;20477;-63
2022/10/22 09:54:18;;;;;;;11.13;7.80;;;18.90;99.90;;;;;;5093500;28;20455;-62
2022/10/22 09:56:51;;;;;;;9.60;4.97;;;19.10;99.90;;;;;;5089610;28;20487;-62
2022/10/22 09:59:24;;;;;;;15.30;5.03;;;19.30;99.90;;;;;;5088689;28;20451;-62
2022/10/22 10:01:57;;;;;;;4.70;3.30;;;19.50;99.90;;;;;;5081680;28;20484;-63
2022/10/22 10:04:25;;;;;;;7.80;4.63;;;19.50;99.90;;;;;;5088959;28;20489;-63
2022/10/22 10:06:55;;;;;;;7.03;4.93;;;19.60;99.90;;;;;;5091285;28;20526;-63
2022/10/22 10:09:24;;;;;;;14.50;6.10;;;19.60;99.90;;;;;;5092975;28;20483;-63
2022/10/22 10:11:59;;;;;;;13.20;4.13;;;19.80;99.90;;;;;;5093185;28;20958;-64
2022/10/22 10:14:37;;;;;;;7.00;4.20;;;20.00;99.90;;;;;;5093917;28;20871;-63
2022/10/22 10:17:13;;;;;;;14.27;8.00;;;19.80;99.90;;;;;;5088101;28;20690;-64
2022/10/22 10:19:52;;;;;;;11.80;4.30;;;20.00;99.90;;;;;;5093764;28;20488;-63
2022/10/22 10:22:31;;;;;;;5.90;4.23;;;20.00;99.90;;;;;;5092786;28;20556;-64
2022/10/22 10:25:15;;;;;;;27.43;5.37;;;20.00;99.90;;;;;;5095815;27;20444;-63
2022/10/22 10:27:45;;;;;;;7.73;4.93;;;19.90;99.90;;;;;;5089374;28;20922;-63
2022/10/22 10:30:16;;;;;;;11.23;6.20;;;19.60;99.90;;;;;;5092684;28;20977;-63
2022/10/22 10:33:04;;;;;;;7.13;4.43;;;19.60;99.90;;;;;;5092806;27;20477;-64
2022/10/22 10:35:43;;;;;;;22.17;3.90;;;19.50;99.90;;;;;;5082901;28;20481;-63
2022/10/22 10:38:32;;;;;;;10.83;6.93;;;19.30;99.90;;;;;;5088383;28;20496;-63
2022/10/22 10:41:08;;;;;;;6.60;4.03;;;19.30;99.90;;;;;;5092656;28;20452;-63
2022/10/22 10:43:43;;;;;;;8.87;5.17;;;19.20;99.90;;;;;;5093365;28;20500;-63
2022/10/22 10:46:17;;;;;;;15.40;6.63;;;19.30;99.90;;;;;;5091294;28;20504;-63
2022/10/22 10:48:50;;;;;;;9.40;5.00;;;19.30;99.90;;;;;;5090439;28;20897;-63
2022/10/22 10:51:36;;;;;;;11.80;5.67;;;19.40;99.90;;;;;;5091571;28;20488;-63
2022/10/22 10:54:18;;;;;;;6.67;4.30;;;19.40;99.90;;;;;;5091443;28;20693;-63
2022/10/22 10:56:49;;;;;;;10.03;6.50;;;19.40;99.90;;;;;;5085198;28;20464;-63
2022/10/22 10:59:31;;;;;;;10.57;5.50;;;19.60;99.90;;;;;;5080913;28;20511;-63
2022/10/22 11:02:33;;;;;;;7.93;4.90;;;19.70;99.90;;;;;;5096331;27;20439;-63
2022/10/22 11:05:26;;;;;;;7.43;3.97;;;18.50;99.90;;;;;;5081920;28;20814;-62
2022/10/22 11:07:58;;;;;;;7.10;5.13;;;19.80;99.90;;;;;;5060374;28;20485;-63
2022/10/22 11:10:29;;;;;;;7.27;3.27;;;19.70;99.90;;;;;;5094202;28;20482;-63
2022/10/22 11:13:03;;;;;;;5.13;3.87;;;19.60;99.90;;;;;;5088734;28;20492;-63
2022/10/22 11:15:33;;;;;;;11.23;4.00;;;19.60;99.90;;;;;;5095762;27;20485;-63
2022/10/22 11:18:07;;;;;;;4.83;4.27;;;19.70;99.90;;;;;;5093773;27;20448;-63
2022/10/22 11:20:43;;;;;;;12.70;4.40;;;19.70;99.90;;;;;;5096228;28;20556;-63
2022/10/22 11:23:16;;;;;;;9.17;5.53;;;19.80;99.90;;;;;;5093664;28;20481;-64
2022/10/22 11:25:46;;;;;;;11.60;5.67;;;19.80;99.90;;;;;;5083938;27;20508;-64
2022/10/22 11:28:19;;;;;;;12.00;6.53;;;19.70;99.90;;;;;;5099778;27;20482;-63
2022/10/22 11:30:51;;;;;;;4.97;3.73;;;19.80;99.90;;;;;;5104095;27;20787;-63
2022/10/22 11:33:21;;;;;;;18.17;4.83;;;19.80;99.90;;;;;;5101092;27;20837;-64
2022/10/22 11:35:50;;;;;;;6.33;4.63;;;19.80;99.90;;;;;;5094387;27;20484;-64
2022/10/22 11:38:23;;;;;;;9.80;5.07;;;19.90;99.90;;;;;;5085323;28;20735;-63
2022/10/22 11:40:58;;;;;;;5.87;3.80;;;20.00;99.90;;;;;;5088012;27;20492;-64
2022/10/22 11:43:31;;;;;;;6.07;4.10;;;20.10;99.90;;;;;;5092333;28;20830;-64
2022/10/22 11:46:02;;;;;;;10.80;4.27;;;20.30;99.90;;;;;;5090021;28;20477;-63
2022/10/22 11:48:36;;;;;;;10.20;4.47;;;20.40;99.90;;;;;;5089527;28;20564;-64
2022/10/22 11:51:03;;;;;;;8.57;5.43;;;20.50;99.90;;;;;;5076431;27;20449;-64
2022/10/22 11:53:37;;;;;;;11.03;5.60;;;20.50;99.90;;;;;;5087883;28;20559;-64
2022/10/22 11:56:22;;;;;;;11.60;8.03;;;20.40;99.90;;;;;;5090053;28;20953;-64
2022/10/22 11:58:49;;;;;;;6.50;4.27;;;20.50;99.90;;;;;;5085555;27;20810;-64
2022/10/22 12:01:24;;;;;;;5.87;4.50;;;20.30;99.90;;;;;;5090342;28;20480;-64
2022/10/22 12:03:52;;;;;;;11.30;4.87;;;20.20;99.90;;;;;;5089019;28;20485;-64
2022/10/22 12:06:23;;;;;;;8.57;4.30;;;20.00;99.90;;;;;;5082683;28;20869;-64
2022/10/22 12:08:59;;;;;;;7.30;4.50;;;20.00;99.90;;;;;;5085281;28;20487;-64
2022/10/22 12:11:28;;;;;;;7.67;3.50;;;20.10;99.90;;;;;;5089213;28;20477;-64
2022/10/22 12:14:18;;;;;;;11.20;5.70;;;20.30;99.90;;;;;;5090538;28;20452;-64
2022/10/22 12:16:48;;;;;;;7.13;3.97;;;20.40;99.90;;;;;;5083079;27;20525;-64
2022/10/22 12:19:17;;;;;;;9.60;5.80;;;20.50;99.90;;;;;;5087438;28;20508;-64
2022/10/22 12:21:48;;;;;;;7.03;2.27;;;20.50;99.70;;;;;;5088197;28;20845;-63
2022/10/22 12:24:19;;;;;;;7.80;4.50;;;18.10;99.30;;;;;;5088935;27;20453;-64
2022/10/22 12:26:48;;;;;;;23.27;4.63;;;20.50;99.90;;;;;;5071933;28;20486;-64
2022/10/22 12:29:16;;;;;;;6.20;4.27;;;21.90;99.90;;;;;;5091408;27;21024;-64
2022/10/22 12:31:45;;;;;;;6.40;3.50;;;20.60;99.90;;;;;;5092164;28;21012;-64
2022/10/22 12:34:15;;;;;;;16.53;5.60;;;20.60;99.90;;;;;;5089561;28;20463;-63
2022/10/22 12:36:42;;;;;;;6.57;4.80;;;20.50;99.90;;;;;;5084066;27;21001;-63
2022/10/22 12:39:12;;;;;;;7.53;5.73;;;20.60;99.90;;;;;;5087535;28;20891;-64
2022/10/22 12:41:41;;;;;;;15.13;2.00;;;20.90;99.90;;;;;;5091878;28;20728;-65
2022/10/22 12:44:11;;;;;;;9.70;3.47;;;20.90;99.40;;;;;;5090531;28;21111;-65
2022/10/22 12:46:39;;;;;;;6.73;3.40;;;21.00;99.00;;;;;;5073146;28;20843;-64
2022/10/22 12:49:11;;;;;;;12.70;7.47;;;21.10;99.70;;;;;;5086048;28;20875;-64
2022/10/22 12:51:38;;;;;;;6.57;3.47;;;21.10;98.90;;;;;;5090930;27;20643;-64
2022/10/22 12:54:09;;;;;;;5.10;2.00;;;21.20;99.80;;;;;;5078247;28;20797;-64
2022/10/22 12:56:37;;;;;;;10.53;4.87;;;21.30;99.70;;;;;;5085615;28;20477;-64
2022/10/22 12:59:11;;;;;;;11.73;4.70;;;21.20;99.90;;;;;;5090140;28;20455;-64